Home   Weather   Alton Amphitheater   Past weeks
Flag for USA

Past Weather in Alton Amphitheater, Utah, USA — Yesterday and Last 2 Weeks

Currently: 84 °F. Sunny. (Weather station: Colorado City Municipal Airport, USA). See more current weather

Past Weather in Alton Amphitheater — Graph

°F

Alton Amphitheater Temperature Yesterday

Maximum temperature yesterday: 91 °F (at 1:35 pm)
Minimum temperature yesterday: 48 °F (at 6:55 am)
Average temperature yesterday: 70 °F

High & Low Weather Summary for the Past Weeks

 TemperatureHumidityPressure
High97 °F (Sep 12, 3:35 pm)100% (Sep 19, 1:35 am)30.46 "Hg (Sep 19, 1:35 am)
Low41 °F (Sep 21, 4:55 am)10% (Sep 14, 4:15 pm)29.98 "Hg (Sep 16, 4:35 pm)
Average70 °F33%30.17 "Hg
* Reported Sep 11 3:15 pm — Sep 26 3:55 pm, Alton Amphitheater. Weather by CustomWeather, © 2021

Note: Actual official high and low records may vary slightly from our data, if they occured in-between our weather recording intervals... More about our weather records

Alton Amphitheater Weather History for the Previous 24 Hours

Scroll right to see more
 ConditionsComfort  
Time TempWeatherWind HumidityBarometerVisibility
3:55 pm
Sun, Sep 26
84 °FSunny.5 mph25%30.07 "Hg10 mi
3:35 pm86 °FSunny.7 mph24%30.08 "Hg10 mi
3:15 pm86 °FSunny.7 mph24%30.09 "Hg10 mi
2:55 pm84 °FSunny.6 mph27%30.09 "Hg10 mi
2:35 pm82 °FSunny.5 mph28%30.11 "Hg10 mi
2:15 pm82 °FSunny.5 mph28%30.11 "Hg10 mi
1:55 pm81 °FSunny.6 mph30%30.12 "Hg10 mi
1:35 pm82 °FSunny.13 mph28%30.13 "Hg10 mi
1:15 pm81 °FSunny.8 mph30%30.13 "Hg10 mi
12:55 pm81 °FSunny.10 mph32%30.14 "Hg10 mi
12:35 pm79 °FSunny.5 mph32%30.15 "Hg10 mi
12:15 pm79 °FSunny.6 mph34%30.15 "Hg10 mi
11:55 am79 °FSunny.5 mph34%30.16 "Hg10 mi
11:15 am73 °FSunny.3 mph41%30.16 "Hg10 mi
10:55 am73 °FSunny.No wind41%30.17 "Hg10 mi
10:35 am72 °FSunny.No wind47%30.17 "Hg10 mi
10:15 am70 °FSunny.3 mph50%30.17 "Hg10 mi
9:55 am66 °FSunny.3 mph56%30.17 "Hg10 mi
9:35 am64 °FSunny.6 mph60%30.17 "Hg10 mi
9:15 am61 °FSunny.No wind59%30.17 "Hg10 mi
8:55 am61 °FScattered clouds.5 mph59%30.17 "Hg10 mi
8:35 am59 °FScattered clouds.9 mph63%30.17 "Hg10 mi
8:15 am59 °FScattered clouds.8 mph63%30.16 "Hg10 mi
7:55 am59 °FScattered clouds.N/A59%30.16 "Hg10 mi
7:35 am57 °FSunny.5 mph63%30.15 "Hg10 mi
6:55 am61 °FClear.6 mph59%30.15 "Hg10 mi
6:35 am59 °FClear.5 mph63%30.14 "Hg10 mi
6:15 am59 °FClear.No wind59%30.15 "Hg10 mi
5:55 am57 °FPassing clouds.3 mph63%30.15 "Hg10 mi
5:15 am55 °FPassing clouds.8 mph63%30.14 "Hg10 mi
4:55 am54 °FClear.No wind63%30.13 "Hg10 mi
4:15 am55 °FPassing clouds.5 mph59%30.13 "Hg10 mi
3:55 am55 °FClear.6 mph59%30.13 "Hg10 mi
3:35 am55 °FClear.5 mph63%30.14 "Hg10 mi
3:15 am55 °FClear.No wind59%30.15 "Hg10 mi
2:55 am55 °FClear.6 mph59%30.15 "Hg10 mi
2:35 am59 °FClear.5 mph55%30.15 "Hg10 mi
2:15 am59 °FClear.8 mph59%30.15 "Hg10 mi
1:35 am59 °FClear.10 mph55%30.15 "Hg10 mi
1:15 am59 °FClear.9 mph55%30.15 "Hg10 mi
12:55 am59 °FClear.8 mph55%30.15 "Hg10 mi
12:35 am61 °FClear.8 mph52%30.15 "Hg10 mi
12:15 am63 °FClear.9 mph52%30.13 "Hg10 mi
11:55 pm
Sat, Sep 25
61 °FClear.7 mph48%30.13 "Hg10 mi
11:15 pm64 °FClear.8 mph43%30.13 "Hg10 mi
10:55 pm64 °FClear.6 mph46%30.13 "Hg10 mi
10:35 pm63 °FClear.9 mph49%30.13 "Hg10 mi
10:15 pm64 °FClear.8 mph43%30.13 "Hg10 mi
9:55 pm68 °FClear.No wind43%30.13 "Hg10 mi
9:35 pm68 °FClear.No wind43%30.13 "Hg10 mi
9:15 pm70 °FClear.No wind38%30.13 "Hg10 mi
8:55 pm73 °FClear.No wind36%30.12 "Hg10 mi
8:35 pm75 °FClear.3 mph31%30.12 "Hg10 mi
8:15 pm79 °FClear.6 mph28%30.11 "Hg10 mi
7:55 pm79 °FClear.9 mph28%30.11 "Hg10 mi
7:35 pm81 °FClear.9 mph26%30.11 "Hg10 mi
7:15 pm82 °FSunny.9 mph25%30.09 "Hg10 mi
6:55 pm82 °FSunny.12 mph21%30.09 "Hg10 mi
6:15 pm86 °FSunny.13 mph15%30.08 "Hg10 mi
5:55 pm88 °FSunny.10 mph15%30.08 "Hg10 mi
5:35 pm90 °FSunny.9 mph13%30.08 "Hg10 mi
5:15 pm90 °FSunny.6 mph13%30.08 "Hg10 mi
Weather by CustomWeather, © 2021

See weather overview